sensor_id;sensor_type;location;lat;lon;timestamp;temperature;humidity
45785;DHT22;31489;51.404;5.474;2023-02-13T00:00:17;11.20;67.10
45785;DHT22;31489;51.404;5.474;2023-02-13T00:02:44;11.10;67.10
45785;DHT22;31489;51.404;5.474;2023-02-13T00:05:09;11.10;67.20
45785;DHT22;31489;51.404;5.474;2023-02-13T00:07:35;11.00;67.10
45785;DHT22;31489;51.404;5.474;2023-02-13T00:10:01;11.00;67.10
45785;DHT22;31489;51.404;5.474;2023-02-13T00:12:26;11.00;67.20
45785;DHT22;31489;51.404;5.474;2023-02-13T00:14:52;10.90;67.10
45785;DHT22;31489;51.404;5.474;2023-02-13T00:17:18;10.90;67.10
45785;DHT22;31489;51.404;5.474;2023-02-13T00:19:44;10.90;67.20
45785;DHT22;31489;51.404;5.474;2023-02-13T00:22:10;10.80;67.10
45785;DHT22;31489;51.404;5.474;2023-02-13T00:24:36;10.80;67.10
45785;DHT22;31489;51.404;5.474;2023-02-13T00:27:01;10.70;67.00
45785;DHT22;31489;51.404;5.474;2023-02-13T00:29:27;10.70;67.10
45785;DHT22;31489;51.404;5.474;2023-02-13T00:31:53;10.60;67.10
45785;DHT22;31489;51.404;5.474;2023-02-13T00:34:18;10.60;67.00
45785;DHT22;31489;51.404;5.474;2023-02-13T00:36:44;10.60;67.10
45785;DHT22;31489;51.404;5.474;2023-02-13T00:39:13;10.50;67.10
45785;DHT22;31489;51.404;5.474;2023-02-13T00:41:38;10.50;67.10
45785;DHT22;31489;51.404;5.474;2023-02-13T00:44:04;10.50;67.10
45785;DHT22;31489;51.404;5.474;2023-02-13T00:46:30;10.40;67.10
45785;DHT22;31489;51.404;5.474;2023-02-13T00:48:55;10.40;67.10
45785;DHT22;31489;51.404;5.474;2023-02-13T00:51:21;10.30;67.00
45785;DHT22;31489;51.404;5.474;2023-02-13T00:53:47;10.30;67.00
45785;DHT22;31489;51.404;5.474;2023-02-13T00:56:12;10.30;67.00
45785;DHT22;31489;51.404;5.474;2023-02-13T00:58:38;10.30;67.10
45785;DHT22;31489;51.404;5.474;2023-02-13T01:01:04;10.20;67.00
45785;DHT22;31489;51.404;5.474;2023-02-13T01:03:30;10.10;67.00
45785;DHT22;31489;51.404;5.474;2023-02-13T01:05:56;10.20;67.10
45785;DHT22;31489;51.404;5.474;2023-02-13T01:08:22;10.10;67.00
45785;DHT22;31489;51.404;5.474;2023-02-13T01:10:48;10.10;67.00
45785;DHT22;31489;51.404;5.474;2023-02-13T01:13:16;10.00;66.90
45785;DHT22;31489;51.404;5.474;2023-02-13T01:15:43;10.00;67.00
45785;DHT22;31489;51.404;5.474;2023-02-13T01:18:13;10.00;67.00
45785;DHT22;31489;51.404;5.474;2023-02-13T01:20:40;9.90;67.00
45785;DHT22;31489;51.404;5.474;2023-02-13T01:23:06;9.90;67.00
45785;DHT22;31489;51.404;5.474;2023-02-13T01:25:32;9.90;67.10
45785;DHT22;31489;51.404;5.474;2023-02-13T01:27:58;9.80;67.10
45785;DHT22;31489;51.404;5.474;2023-02-13T01:30:23;9.80;67.20
45785;DHT22;31489;51.404;5.474;2023-02-13T01:32:49;9.80;67.20
45785;DHT22;31489;51.404;5.474;2023-02-13T01:35:15;9.70;67.20
45785;DHT22;31489;51.404;5.474;2023-02-13T01:37:41;9.70;67.10
45785;DHT22;31489;51.404;5.474;2023-02-13T01:40:12;9.70;67.10
45785;DHT22;31489;51.404;5.474;2023-02-13T01:42:39;9.60;67.20
45785;DHT22;31489;51.404;5.474;2023-02-13T01:45:27;9.60;67.30
45785;DHT22;31489;51.404;5.474;2023-02-13T01:48:02;9.60;67.40
45785;DHT22;31489;51.404;5.474;2023-02-13T01:53:32;9.60;67.30
45785;DHT22;31489;51.404;5.474;2023-02-13T01:56:07;9.50;67.50
45785;DHT22;31489;51.404;5.474;2023-02-13T01:58:36;9.50;67.60
45785;DHT22;31489;51.404;5.474;2023-02-13T02:01:05;9.50;67.50
45785;DHT22;31489;51.404;5.474;2023-02-13T02:03:35;9.50;67.60
45785;DHT22;31489;51.404;5.474;2023-02-13T02:06:03;9.40;67.50
45785;DHT22;31489;51.404;5.474;2023-02-13T02:08:30;9.40;67.60
45785;DHT22;31489;51.404;5.474;2023-02-13T02:11:02;9.40;67.70
45785;DHT22;31489;51.404;5.474;2023-02-13T02:13:29;9.40;67.70
45785;DHT22;31489;51.404;5.474;2023-02-13T02:15:55;9.40;67.70
45785;DHT22;31489;51.404;5.474;2023-02-13T02:18:22;9.40;67.80
45785;DHT22;31489;51.404;5.474;2023-02-13T02:24:36;9.30;67.80
45785;DHT22;31489;51.404;5.474;2023-02-13T02:33:02;9.30;67.80
45785;DHT22;31489;51.404;5.474;2023-02-13T02:38:05;9.30;67.80
45785;DHT22;31489;51.404;5.474;2023-02-13T02:46:17;9.20;67.90
45785;DHT22;31489;51.404;5.474;2023-02-13T02:51:52;9.10;67.70
45785;DHT22;31489;51.404;5.474;2023-02-13T02:54:43;9.10;67.60
45785;DHT22;31489;51.404;5.474;2023-02-13T02:57:30;9.10;67.60
45785;DHT22;31489;51.404;5.474;2023-02-13T03:00:17;9.00;67.50
45785;DHT22;31489;51.404;5.474;2023-02-13T03:03:04;9.00;67.40
45785;DHT22;31489;51.404;5.474;2023-02-13T03:05:50;9.00;67.40
45785;DHT22;31489;51.404;5.474;2023-02-13T03:08:35;8.90;67.40
45785;DHT22;31489;51.404;5.474;2023-02-13T03:11:20;8.90;67.50
45785;DHT22;31489;51.404;5.474;2023-02-13T03:14:06;8.90;67.50
45785;DHT22;31489;51.404;5.474;2023-02-13T03:16:34;8.80;67.50
45785;DHT22;31489;51.404;5.474;2023-02-13T03:25:18;8.80;67.60
45785;DHT22;31489;51.404;5.474;2023-02-13T03:27:56;8.70;67.40
45785;DHT22;31489;51.404;5.474;2023-02-13T03:38:52;8.60;67.40
45785;DHT22;31489;51.404;5.474;2023-02-13T03:41:32;8.60;67.50
45785;DHT22;31489;51.404;5.474;2023-02-13T03:46:32;8.50;67.40
45785;DHT22;31489;51.404;5.474;2023-02-13T03:49:01;8.50;67.40
45785;DHT22;31489;51.404;5.474;2023-02-13T03:52:07;8.50;67.40
45785;DHT22;31489;51.404;5.474;2023-02-13T03:57:29;8.40;67.30
45785;DHT22;31489;51.404;5.474;2023-02-13T04:00:16;8.40;67.30
45785;DHT22;31489;51.404;5.474;2023-02-13T04:02:53;8.40;67.30
45785;DHT22;31489;51.404;5.474;2023-02-13T04:05:24;8.30;67.20
45785;DHT22;31489;51.404;5.474;2023-02-13T04:07:53;8.30;67.10
45785;DHT22;31489;51.404;5.474;2023-02-13T04:10:19;8.30;67.20
45785;DHT22;31489;51.404;5.474;2023-02-13T04:13:19;8.30;67.20
45785;DHT22;31489;51.404;5.474;2023-02-13T04:16:00;8.20;67.20
45785;DHT22;31489;51.404;5.474;2023-02-13T04:18:29;8.20;67.20
45785;DHT22;31489;51.404;5.474;2023-02-13T04:20:56;8.20;67.10
45785;DHT22;31489;51.404;5.474;2023-02-13T04:23:22;8.10;67.10
45785;DHT22;31489;51.404;5.474;2023-02-13T04:25:50;8.10;67.10
45785;DHT22;31489;51.404;5.474;2023-02-13T04:28:19;8.10;67.00
45785;DHT22;31489;51.404;5.474;2023-02-13T04:30:45;8.00;67.00
45785;DHT22;31489;51.404;5.474;2023-02-13T04:33:11;8.00;67.00
45785;DHT22;31489;51.404;5.474;2023-02-13T04:35:36;8.00;67.00
45785;DHT22;31489;51.404;5.474;2023-02-13T04:38:02;8.00;67.00
45785;DHT22;31489;51.404;5.474;2023-02-13T04:40:28;8.00;67.10
45785;DHT22;31489;51.404;5.474;2023-02-13T04:42:53;7.90;67.00
45785;DHT22;31489;51.404;5.474;2023-02-13T04:45:19;7.90;67.00
45785;DHT22;31489;51.404;5.474;2023-02-13T04:47:52;7.90;67.00
45785;DHT22;31489;51.404;5.474;2023-02-13T04:50:18;7.90;66.90
45785;DHT22;31489;51.404;5.474;2023-02-13T04:52:44;7.90;66.90
45785;DHT22;31489;51.404;5.474;2023-02-13T04:55:10;7.80;66.80
45785;DHT22;31489;51.404;5.474;2023-02-13T04:57:35;7.80;66.90
45785;DHT22;31489;51.404;5.474;2023-02-13T05:00:02;7.80;66.80
45785;DHT22;31489;51.404;5.474;2023-02-13T05:02:28;7.80;66.80
45785;DHT22;31489;51.404;5.474;2023-02-13T05:04:53;7.70;66.80
45785;DHT22;31489;51.404;5.474;2023-02-13T05:07:19;7.70;66.80
45785;DHT22;31489;51.404;5.474;2023-02-13T05:09:44;7.70;66.80
45785;DHT22;31489;51.404;5.474;2023-02-13T05:12:10;7.60;66.70
45785;DHT22;31489;51.404;5.474;2023-02-13T05:14:36;7.70;66.80
45785;DHT22;31489;51.404;5.474;2023-02-13T05:17:01;7.60;66.80
45785;DHT22;31489;51.404;5.474;2023-02-13T05:19:27;7.60;66.80
45785;DHT22;31489;51.404;5.474;2023-02-13T05:21:53;7.50;66.70
45785;DHT22;31489;51.404;5.474;2023-02-13T05:24:37;7.50;66.60
45785;DHT22;31489;51.404;5.474;2023-02-13T05:27:02;7.50;66.70
45785;DHT22;31489;51.404;5.474;2023-02-13T05:29:28;7.50;66.80
45785;DHT22;31489;51.404;5.474;2023-02-13T05:31:56;7.50;66.80
45785;DHT22;31489;51.404;5.474;2023-02-13T05:34:24;7.40;66.80
45785;DHT22;31489;51.404;5.474;2023-02-13T05:36:50;7.40;66.90
45785;DHT22;31489;51.404;5.474;2023-02-13T05:39:16;7.40;66.80
45785;DHT22;31489;51.404;5.474;2023-02-13T05:41:43;7.40;66.80
45785;DHT22;31489;51.404;5.474;2023-02-13T05:44:10;7.40;66.80
45785;DHT22;31489;51.404;5.474;2023-02-13T05:46:36;7.30;67.40
45785;DHT22;31489;51.404;5.474;2023-02-13T05:49:03;7.30;66.80
45785;DHT22;31489;51.404;5.474;2023-02-13T05:51:29;7.30;66.80
45785;DHT22;31489;51.404;5.474;2023-02-13T05:53:54;7.30;66.80
45785;DHT22;31489;51.404;5.474;2023-02-13T05:56:20;7.20;66.80
45785;DHT22;31489;51.404;5.474;2023-02-13T05:58:46;7.20;67.00
45785;DHT22;31489;51.404;5.474;2023-02-13T06:01:12;7.20;67.10
45785;DHT22;31489;51.404;5.474;2023-02-13T06:03:38;7.20;67.10
45785;DHT22;31489;51.404;5.474;2023-02-13T06:06:07;7.20;67.30
45785;DHT22;31489;51.404;5.474;2023-02-13T06:08:33;7.20;67.30
45785;DHT22;31489;51.404;5.474;2023-02-13T06:10:58;7.20;67.50
45785;DHT22;31489;51.404;5.474;2023-02-13T06:13:24;7.20;67.70
45785;DHT22;31489;51.404;5.474;2023-02-13T06:15:50;7.20;67.90
45785;DHT22;31489;51.404;5.474;2023-02-13T06:18:15;7.20;68.10
45785;DHT22;31489;51.404;5.474;2023-02-13T06:20:41;7.20;68.50
45785;DHT22;31489;51.404;5.474;2023-02-13T06:23:07;7.20;68.70
45785;DHT22;31489;51.404;5.474;2023-02-13T06:25:36;7.20;69.50
45785;DHT22;31489;51.404;5.474;2023-02-13T06:28:02;7.10;69.10
45785;DHT22;31489;51.404;5.474;2023-02-13T06:30:28;7.10;69.20
45785;DHT22;31489;51.404;5.474;2023-02-13T06:32:54;7.10;69.40
45785;DHT22;31489;51.404;5.474;2023-02-13T06:35:20;7.10;69.50
45785;DHT22;31489;51.404;5.474;2023-02-13T06:37:49;7.10;69.50
45785;DHT22;31489;51.404;5.474;2023-02-13T06:40:15;7.10;69.70
45785;DHT22;31489;51.404;5.474;2023-02-13T06:42:42;7.10;69.80
45785;DHT22;31489;51.404;5.474;2023-02-13T06:45:09;7.10;69.80
45785;DHT22;31489;51.404;5.474;2023-02-13T06:47:34;7.10;69.80
45785;DHT22;31489;51.404;5.474;2023-02-13T06:50:00;7.10;69.80
45785;DHT22;31489;51.404;5.474;2023-02-13T06:52:26;7.10;69.70
45785;DHT22;31489;51.404;5.474;2023-02-13T06:54:52;7.10;69.80
45785;DHT22;31489;51.404;5.474;2023-02-13T06:57:17;7.10;69.70
45785;DHT22;31489;51.404;5.474;2023-02-13T06:59:43;7.10;69.80
45785;DHT22;31489;51.404;5.474;2023-02-13T07:02:10;7.10;69.70
45785;DHT22;31489;51.404;5.474;2023-02-13T07:04:36;7.10;69.90
45785;DHT22;31489;51.404;5.474;2023-02-13T07:07:02;7.10;69.80
45785;DHT22;31489;51.404;5.474;2023-02-13T07:09:29;7.10;69.70
45785;DHT22;31489;51.404;5.474;2023-02-13T07:11:55;7.10;69.80
45785;DHT22;31489;51.404;5.474;2023-02-13T07:14:20;7.00;69.80
45785;DHT22;31489;51.404;5.474;2023-02-13T07:16:46;7.00;69.90
45785;DHT22;31489;51.404;5.474;2023-02-13T07:19:11;7.00;70.10
45785;DHT22;31489;51.404;5.474;2023-02-13T07:21:37;7.00;70.20
45785;DHT22;31489;51.404;5.474;2023-02-13T07:24:03;7.00;70.30
45785;DHT22;31489;51.404;5.474;2023-02-13T07:26:29;7.00;70.40
45785;DHT22;31489;51.404;5.474;2023-02-13T07:28:55;7.00;70.50
45785;DHT22;31489;51.404;5.474;2023-02-13T07:31:20;7.00;70.50
45785;DHT22;31489;51.404;5.474;2023-02-13T07:33:49;7.10;70.70
45785;DHT22;31489;51.404;5.474;2023-02-13T07:36:14;7.10;70.70
45785;DHT22;31489;51.404;5.474;2023-02-13T07:38:40;7.10;70.60
45785;DHT22;31489;51.404;5.474;2023-02-13T07:41:06;7.10;70.60
45785;DHT22;31489;51.404;5.474;2023-02-13T07:43:31;7.10;70.50
45785;DHT22;31489;51.404;5.474;2023-02-13T07:45:59;7.10;70.50
45785;DHT22;31489;51.404;5.474;2023-02-13T07:48:25;7.10;70.50
45785;DHT22;31489;51.404;5.474;2023-02-13T07:51:02;7.20;70.50
45785;DHT22;31489;51.404;5.474;2023-02-13T07:53:28;7.20;70.60
45785;DHT22;31489;51.404;5.474;2023-02-13T07:55:53;7.20;70.40
45785;DHT22;31489;51.404;5.474;2023-02-13T07:58:20;7.20;70.30
45785;DHT22;31489;51.404;5.474;2023-02-13T08:00:45;7.20;70.10
45785;DHT22;31489;51.404;5.474;2023-02-13T08:03:11;7.20;69.90
45785;DHT22;31489;51.404;5.474;2023-02-13T08:05:37;7.20;69.70
45785;DHT22;31489;51.404;5.474;2023-02-13T08:08:03;7.20;69.80
45785;DHT22;31489;51.404;5.474;2023-02-13T08:10:29;7.20;69.90
45785;DHT22;31489;51.404;5.474;2023-02-13T08:13:14;7.20;69.90
45785;DHT22;31489;51.404;5.474;2023-02-13T08:15:40;7.20;70.10
45785;DHT22;31489;51.404;5.474;2023-02-13T08:18:08;7.20;70.20
45785;DHT22;31489;51.404;5.474;2023-02-13T08:20:34;7.20;70.20
45785;DHT22;31489;51.404;5.474;2023-02-13T08:23:04;7.30;70.40
45785;DHT22;31489;51.404;5.474;2023-02-13T08:25:31;7.30;70.50
45785;DHT22;31489;51.404;5.474;2023-02-13T08:27:58;7.30;70.60
45785;DHT22;31489;51.404;5.474;2023-02-13T08:30:24;7.30;70.60
45785;DHT22;31489;51.404;5.474;2023-02-13T08:32:50;7.40;70.70
45785;DHT22;31489;51.404;5.474;2023-02-13T08:35:16;7.50;70.70
45785;DHT22;31489;51.404;5.474;2023-02-13T08:37:41;7.50;70.70
45785;DHT22;31489;51.404;5.474;2023-02-13T08:40:07;7.50;70.60
45785;DHT22;31489;51.404;5.474;2023-02-13T08:42:36;7.60;70.60
45785;DHT22;31489;51.404;5.474;2023-02-13T08:45:02;7.60;70.70
45785;DHT22;31489;51.404;5.474;2023-02-13T08:47:28;7.70;70.80
45785;DHT22;31489;51.404;5.474;2023-02-13T08:49:54;7.70;70.80
45785;DHT22;31489;51.404;5.474;2023-02-13T08:52:19;7.70;71.00
45785;DHT22;31489;51.404;5.474;2023-02-13T08:54:45;7.70;71.10
45785;DHT22;31489;51.404;5.474;2023-02-13T08:57:11;7.80;71.30
45785;DHT22;31489;51.404;5.474;2023-02-13T08:59:36;7.80;71.40
45785;DHT22;31489;51.404;5.474;2023-02-13T09:02:02;7.90;71.40
45785;DHT22;31489;51.404;5.474;2023-02-13T09:04:31;8.00;71.50
45785;DHT22;31489;51.404;5.474;2023-02-13T09:06:58;8.00;71.60
45785;DHT22;31489;51.404;5.474;2023-02-13T09:09:27;8.10;71.50
45785;DHT22;31489;51.404;5.474;2023-02-13T09:11:52;8.10;71.60
45785;DHT22;31489;51.404;5.474;2023-02-13T09:14:24;8.20;71.70
45785;DHT22;31489;51.404;5.474;2023-02-13T09:16:50;8.30;71.80
45785;DHT22;31489;51.404;5.474;2023-02-13T09:19:16;8.40;71.80
45785;DHT22;31489;51.404;5.474;2023-02-13T09:21:41;8.40;71.90
45785;DHT22;31489;51.404;5.474;2023-02-13T09:24:08;8.40;71.90
45785;DHT22;31489;51.404;5.474;2023-02-13T09:26:34;8.50;72.20
45785;DHT22;31489;51.404;5.474;2023-02-13T09:29:00;8.50;72.20
45785;DHT22;31489;51.404;5.474;2023-02-13T09:31:29;8.60;72.50
45785;DHT22;31489;51.404;5.474;2023-02-13T09:33:54;8.60;72.60
45785;DHT22;31489;51.404;5.474;2023-02-13T09:36:22;8.70;72.80
45785;DHT22;31489;51.404;5.474;2023-02-13T09:38:56;8.70;73.10
45785;DHT22;31489;51.404;5.474;2023-02-13T09:41:22;8.80;73.30
45785;DHT22;31489;51.404;5.474;2023-02-13T09:44:01;8.90;73.10
45785;DHT22;31489;51.404;5.474;2023-02-13T09:46:33;9.00;73.70
45785;DHT22;31489;51.404;5.474;2023-02-13T09:49:06;9.00;73.40
45785;DHT22;31489;51.404;5.474;2023-02-13T09:51:32;9.10;73.50
45785;DHT22;31489;51.404;5.474;2023-02-13T09:54:03;9.20;73.40
45785;DHT22;31489;51.404;5.474;2023-02-13T09:56:47;9.30;73.40
45785;DHT22;31489;51.404;5.474;2023-02-13T10:02:22;9.60;73.90
45785;DHT22;31489;51.404;5.474;2023-02-13T10:05:00;9.70;73.50
45785;DHT22;31489;51.404;5.474;2023-02-13T10:07:54;9.70;73.40
45785;DHT22;31489;51.404;5.474;2023-02-13T10:10:32;9.90;73.30
45785;DHT22;31489;51.404;5.474;2023-02-13T10:15:48;10.20;73.60
45785;DHT22;31489;51.404;5.474;2023-02-13T10:18:21;10.40;74.30
45785;DHT22;31489;51.404;5.474;2023-02-13T10:20:54;10.60;75.10
45785;DHT22;31489;51.404;5.474;2023-02-13T10:23:32;11.00;75.50
45785;DHT22;31489;51.404;5.474;2023-02-13T10:26:02;11.40;75.70
45785;DHT22;31489;51.404;5.474;2023-02-13T10:28:42;12.00;76.00
45785;DHT22;31489;51.404;5.474;2023-02-13T10:31:16;12.60;75.10
45785;DHT22;31489;51.404;5.474;2023-02-13T10:33:49;13.30;74.60
45785;DHT22;31489;51.404;5.474;2023-02-13T10:44:26;16.10;69.30
45785;DHT22;31489;51.404;5.474;2023-02-13T10:47:07;16.80;68.00
45785;DHT22;31489;51.404;5.474;2023-02-13T10:50:02;17.50;66.50
45785;DHT22;31489;51.404;5.474;2023-02-13T10:58:25;19.40;62.90
45785;DHT22;31489;51.404;5.474;2023-02-13T11:01:01;20.10;61.30
45785;DHT22;31489;51.404;5.474;2023-02-13T11:03:29;20.60;60.80
45785;DHT22;31489;51.404;5.474;2023-02-13T11:05:57;21.00;60.20
45785;DHT22;31489;51.404;5.474;2023-02-13T11:08:29;21.40;58.80
45785;DHT22;31489;51.404;5.474;2023-02-13T11:10:56;21.80;58.20
45785;DHT22;31489;51.404;5.474;2023-02-13T11:13:26;22.10;57.10
45785;DHT22;31489;51.404;5.474;2023-02-13T11:16:02;22.50;56.30
45785;DHT22;31489;51.404;5.474;2023-02-13T11:18:31;22.80;54.60
45785;DHT22;31489;51.404;5.474;2023-02-13T11:21:21;23.20;54.20
45785;DHT22;31489;51.404;5.474;2023-02-13T11:23:52;23.50;52.60
45785;DHT22;31489;51.404;5.474;2023-02-13T11:26:30;23.80;52.10
45785;DHT22;31489;51.404;5.474;2023-02-13T11:28:59;24.10;51.70
45785;DHT22;31489;51.404;5.474;2023-02-13T11:31:34;24.40;50.60
45785;DHT22;31489;51.404;5.474;2023-02-13T11:37:32;24.80;49.40
45785;DHT22;31489;51.404;5.474;2023-02-13T11:39:41;25.00;48.50
45785;DHT22;31489;51.404;5.474;2023-02-13T11:42:30;25.20;48.80
45785;DHT22;31489;51.404;5.474;2023-02-13T11:45:05;25.40;47.80
45785;DHT22;31489;51.404;5.474;2023-02-13T11:47:41;25.60;47.20
45785;DHT22;31489;51.404;5.474;2023-02-13T11:50:35;25.90;46.40
45785;DHT22;31489;51.404;5.474;2023-02-13T11:53:20;26.10;46.90
45785;DHT22;31489;51.404;5.474;2023-02-13T11:56:14;26.40;46.00
45785;DHT22;31489;51.404;5.474;2023-02-13T11:58:40;26.50;45.80
45785;DHT22;31489;51.404;5.474;2023-02-13T12:01:27;26.70;45.30
45785;DHT22;31489;51.404;5.474;2023-02-13T12:06:28;27.00;43.30
45785;DHT22;31489;51.404;5.474;2023-02-13T12:09:00;27.10;43.90
45785;DHT22;31489;51.404;5.474;2023-02-13T12:11:39;27.20;42.20
45785;DHT22;31489;51.404;5.474;2023-02-13T12:14:10;27.30;41.80
45785;DHT22;31489;51.404;5.474;2023-02-13T12:16:47;27.40;41.70
45785;DHT22;31489;51.404;5.474;2023-02-13T12:19:23;27.50;40.50
45785;DHT22;31489;51.404;5.474;2023-02-13T12:21:57;27.60;40.30
45785;DHT22;31489;51.404;5.474;2023-02-13T12:32:20;27.70;39.80
45785;DHT22;31489;51.404;5.474;2023-02-13T12:41:18;27.70;39.10
45785;DHT22;31489;51.404;5.474;2023-02-13T12:44:26;27.70;40.90
45785;DHT22;31489;51.404;5.474;2023-02-13T12:49:43;27.60;39.60
45785;DHT22;31489;51.404;5.474;2023-02-13T12:52:46;27.60;39.50
45785;DHT22;31489;51.404;5.474;2023-02-13T13:08:39;27.70;38.60
45785;DHT22;31489;51.404;5.474;2023-02-13T13:14:22;27.70;38.50
45785;DHT22;31489;51.404;5.474;2023-02-13T13:22:49;27.50;37.80
45785;DHT22;31489;51.404;5.474;2023-02-13T13:28:03;27.40;37.80
45785;DHT22;31489;51.404;5.474;2023-02-13T13:30:33;27.20;37.60
45785;DHT22;31489;51.404;5.474;2023-02-13T13:35:32;27.10;37.40
45785;DHT22;31489;51.404;5.474;2023-02-13T13:38:13;27.00;37.50
45785;DHT22;31489;51.404;5.474;2023-02-13T13:40:54;27.00;37.30
45785;DHT22;31489;51.404;5.474;2023-02-13T13:43:31;26.90;36.90
45785;DHT22;31489;51.404;5.474;2023-02-13T13:46:27;26.90;36.50
45785;DHT22;31489;51.404;5.474;2023-02-13T13:51:39;26.60;36.60
45785;DHT22;31489;51.404;5.474;2023-02-13T14:07:57;25.70;37.60
45785;DHT22;31489;51.404;5.474;2023-02-13T14:28:55;25.50;37.50
45785;DHT22;31489;51.404;5.474;2023-02-13T14:31:39;25.50;37.40
45785;DHT22;31489;51.404;5.474;2023-02-13T14:37:12;25.30;37.30
45785;DHT22;31489;51.404;5.474;2023-02-13T14:42:47;25.20;37.70
45785;DHT22;31489;51.404;5.474;2023-02-13T14:45:18;25.20;37.50
45785;DHT22;31489;51.404;5.474;2023-02-13T14:47:47;25.10;37.70
45785;DHT22;31489;51.404;5.474;2023-02-13T14:50:28;25.10;37.50
45785;DHT22;31489;51.404;5.474;2023-02-13T14:52:56;25.00;37.60
45785;DHT22;31489;51.404;5.474;2023-02-13T14:55:33;25.00;37.30
45785;DHT22;31489;51.404;5.474;2023-02-13T14:58:35;24.90;37.50
45785;DHT22;31489;51.404;5.474;2023-02-13T15:01:03;24.70;37.70
45785;DHT22;31489;51.404;5.474;2023-02-13T15:03:48;24.60;37.80
45785;DHT22;31489;51.404;5.474;2023-02-13T15:06:30;24.40;37.20
45785;DHT22;31489;51.404;5.474;2023-02-13T15:09:04;24.30;37.20
45785;DHT22;31489;51.404;5.474;2023-02-13T15:11:42;24.20;38.10
45785;DHT22;31489;51.404;5.474;2023-02-13T15:16:55;23.90;37.40
45785;DHT22;31489;51.404;5.474;2023-02-13T15:19:23;23.80;37.30
45785;DHT22;31489;51.404;5.474;2023-02-13T15:21:58;23.60;37.70
45785;DHT22;31489;51.404;5.474;2023-02-13T15:24:25;23.40;37.50
45785;DHT22;31489;51.404;5.474;2023-02-13T15:27:03;23.10;37.70
45785;DHT22;31489;51.404;5.474;2023-02-13T15:29:29;22.90;38.00
45785;DHT22;31489;51.404;5.474;2023-02-13T15:31:56;22.60;38.60
45785;DHT22;31489;51.404;5.474;2023-02-13T15:34:31;22.40;38.90
45785;DHT22;31489;51.404;5.474;2023-02-13T15:36:59;22.20;39.40
45785;DHT22;31489;51.404;5.474;2023-02-13T15:39:30;22.00;39.60
45785;DHT22;31489;51.404;5.474;2023-02-13T15:41:58;21.80;40.20
45785;DHT22;31489;51.404;5.474;2023-02-13T15:44:27;21.60;40.40
45785;DHT22;31489;51.404;5.474;2023-02-13T15:46:55;21.40;40.50
45785;DHT22;31489;51.404;5.474;2023-02-13T15:49:25;21.30;41.00
45785;DHT22;31489;51.404;5.474;2023-02-13T15:52:05;21.10;41.20
45785;DHT22;31489;51.404;5.474;2023-02-13T15:54:33;21.00;41.60
45785;DHT22;31489;51.404;5.474;2023-02-13T15:57:02;20.90;41.70
45785;DHT22;31489;51.404;5.474;2023-02-13T15:59:36;20.80;41.90
45785;DHT22;31489;51.404;5.474;2023-02-13T16:02:08;20.60;41.80
45785;DHT22;31489;51.404;5.474;2023-02-13T16:04:36;20.50;42.30
45785;DHT22;31489;51.404;5.474;2023-02-13T16:07:01;20.40;42.50
45785;DHT22;31489;51.404;5.474;2023-02-13T16:09:32;20.30;42.60
45785;DHT22;31489;51.404;5.474;2023-02-13T16:14:31;20.00;42.60
45785;DHT22;31489;51.404;5.474;2023-02-13T16:16:59;19.90;43.00
45785;DHT22;31489;51.404;5.474;2023-02-13T16:20:04;19.80;43.20
45785;DHT22;31489;51.404;5.474;2023-02-13T16:22:44;19.70;43.60
45785;DHT22;31489;51.404;5.474;2023-02-13T16:27:45;19.50;43.80
45785;DHT22;31489;51.404;5.474;2023-02-13T16:32:46;19.30;44.30
45785;DHT22;31489;51.404;5.474;2023-02-13T16:37:55;19.10;44.50
45785;DHT22;31489;51.404;5.474;2023-02-13T16:40:41;19.00;44.80
45785;DHT22;31489;51.404;5.474;2023-02-13T16:46:16;18.80;45.20
45785;DHT22;31489;51.404;5.474;2023-02-13T16:54:56;18.50;45.80
45785;DHT22;31489;51.404;5.474;2023-02-13T16:57:32;18.30;45.80
45785;DHT22;31489;51.404;5.474;2023-02-13T17:00:17;18.20;46.10
45785;DHT22;31489;51.404;5.474;2023-02-13T17:02:47;18.10;46.20
45785;DHT22;31489;51.404;5.474;2023-02-13T17:07:46;17.80;46.30
45785;DHT22;31489;51.404;5.474;2023-02-13T17:10:27;17.70;46.50
45785;DHT22;31489;51.404;5.474;2023-02-13T17:12:57;17.60;46.90
45785;DHT22;31489;51.404;5.474;2023-02-13T17:15:25;17.50;46.80
45785;DHT22;31489;51.404;5.474;2023-02-13T17:17:52;17.30;46.90
45785;DHT22;31489;51.404;5.474;2023-02-13T17:20:42;17.20;47.10
45785;DHT22;31489;51.404;5.474;2023-02-13T17:23:07;17.10;47.30
45785;DHT22;31489;51.404;5.474;2023-02-13T17:25:38;17.00;47.40
45785;DHT22;31489;51.404;5.474;2023-02-13T17:28:16;16.90;47.70
45785;DHT22;31489;51.404;5.474;2023-02-13T17:30:44;16.80;47.90
45785;DHT22;31489;51.404;5.474;2023-02-13T17:33:20;16.70;47.80
45785;DHT22;31489;51.404;5.474;2023-02-13T17:35:46;16.60;48.10
45785;DHT22;31489;51.404;5.474;2023-02-13T17:38:13;16.50;48.10
45785;DHT22;31489;51.404;5.474;2023-02-13T17:40:40;16.40;48.20
45785;DHT22;31489;51.404;5.474;2023-02-13T17:43:06;16.30;48.30
45785;DHT22;31489;51.404;5.474;2023-02-13T17:45:33;16.20;48.40
45785;DHT22;31489;51.404;5.474;2023-02-13T17:47:59;16.10;48.60
45785;DHT22;31489;51.404;5.474;2023-02-13T17:50:26;16.00;48.70
45785;DHT22;31489;51.404;5.474;2023-02-13T17:52:52;16.00;48.90
45785;DHT22;31489;51.404;5.474;2023-02-13T17:55:27;15.90;49.00
45785;DHT22;31489;51.404;5.474;2023-02-13T17:57:54;15.80;49.30
45785;DHT22;31489;51.404;5.474;2023-02-13T18:00:25;15.70;49.20
45785;DHT22;31489;51.404;5.474;2023-02-13T18:02:55;15.60;49.30
45785;DHT22;31489;51.404;5.474;2023-02-13T18:05:21;15.60;49.50
45785;DHT22;31489;51.404;5.474;2023-02-13T18:07:47;15.50;49.50
45785;DHT22;31489;51.404;5.474;2023-02-13T18:10:19;15.40;49.60
45785;DHT22;31489;51.404;5.474;2023-02-13T18:12:46;15.30;49.80
45785;DHT22;31489;51.404;5.474;2023-02-13T18:15:12;15.20;49.80
45785;DHT22;31489;51.404;5.474;2023-02-13T18:17:38;15.20;49.90
45785;DHT22;31489;51.404;5.474;2023-02-13T18:20:11;15.10;50.00
45785;DHT22;31489;51.404;5.474;2023-02-13T18:22:37;15.00;50.30
45785;DHT22;31489;51.404;5.474;2023-02-13T18:25:03;15.00;50.20
45785;DHT22;31489;51.404;5.474;2023-02-13T18:27:30;14.90;50.30
45785;DHT22;31489;51.404;5.474;2023-02-13T18:29:56;14.80;50.40
45785;DHT22;31489;51.404;5.474;2023-02-13T18:32:22;14.80;50.50
45785;DHT22;31489;51.404;5.474;2023-02-13T18:34:48;14.70;50.70
45785;DHT22;31489;51.404;5.474;2023-02-13T18:37:14;14.60;50.70
45785;DHT22;31489;51.404;5.474;2023-02-13T18:39:43;14.50;50.80
45785;DHT22;31489;51.404;5.474;2023-02-13T18:42:09;14.40;50.80
45785;DHT22;31489;51.404;5.474;2023-02-13T18:44:35;14.40;51.00
45785;DHT22;31489;51.404;5.474;2023-02-13T18:47:01;14.30;51.00
45785;DHT22;31489;51.404;5.474;2023-02-13T18:49:27;14.20;51.10
45785;DHT22;31489;51.404;5.474;2023-02-13T18:51:53;14.20;51.20
45785;DHT22;31489;51.404;5.474;2023-02-13T18:54:18;14.10;51.30
45785;DHT22;31489;51.404;5.474;2023-02-13T18:56:45;14.10;51.40